createdAt,value
2023-01-13T00:00:01.643Z,10.36
2023-01-13T00:04:05.683Z,10.36
2023-01-13T00:08:08.756Z,10.32
2023-01-13T00:12:11.804Z,10.38
2023-01-13T00:16:18.460Z,10.34
2023-01-13T00:20:21.745Z,10.42
2023-01-13T00:24:24.816Z,10.46
2023-01-13T00:28:28.065Z,10.49
2023-01-13T00:32:32.789Z,10.53
2023-01-13T00:36:35.881Z,10.57
2023-01-13T00:40:38.935Z,10.48
2023-01-13T00:44:42.020Z,10.47
2023-01-13T00:48:47.319Z,10.53
2023-01-13T00:52:50.466Z,10.50
2023-01-13T00:56:53.530Z,10.44
2023-01-13T01:00:56.679Z,10.37
2023-01-13T01:05:01.226Z,10.35
2023-01-13T01:09:05.753Z,10.38
2023-01-13T01:13:08.799Z,10.34
2023-01-13T01:17:11.857Z,10.39
2023-01-13T01:21:16.737Z,10.34
2023-01-13T01:25:19.860Z,10.30
2023-01-13T01:29:22.960Z,10.29
2023-01-13T01:33:26.067Z,10.13
2023-01-13T01:37:30.465Z,10.06
2023-01-13T01:41:35.479Z,9.98
2023-01-13T01:45:38.554Z,9.88
2023-01-13T01:49:42.638Z,9.94
2023-01-13T01:53:48.198Z,9.89
2023-01-13T01:57:54.536Z,9.86
2023-01-13T02:01:57.807Z,9.70
2023-01-13T02:06:01.084Z,9.72
2023-01-13T02:10:09.606Z,9.55
2023-01-13T02:14:12.801Z,9.47
2023-01-13T02:18:32.923Z,9.18
2023-01-13T02:23:30.846Z,9.15
2023-01-13T02:27:58.551Z,8.96
2023-01-13T02:32:12.208Z,8.87
2023-01-13T02:36:26.044Z,8.80
2023-01-13T02:40:37.399Z,8.81
2023-01-13T02:44:46.761Z,8.86
2023-01-13T02:48:55.389Z,8.71
2023-01-13T02:53:02.932Z,8.63
2023-01-13T02:57:09.753Z,8.66
2023-01-13T03:01:14.512Z,8.60
2023-01-13T03:05:21.428Z,8.61
2023-01-13T03:09:31.680Z,8.48
2023-01-13T03:14:11.865Z,8.58
2023-01-13T03:18:25.449Z,8.60
2023-01-13T03:22:35.318Z,8.57
2023-01-13T03:26:45.674Z,8.57
2023-01-13T03:30:53.751Z,8.49
2023-01-13T03:35:00.239Z,8.55
2023-01-13T03:39:11.933Z,8.39
2023-01-13T03:43:35.911Z,8.48
2023-01-13T03:47:43.065Z,8.50
2023-01-13T03:51:51.153Z,8.43
2023-01-13T03:56:00.793Z,8.50
2023-01-13T04:00:09.520Z,8.56
2023-01-13T04:04:20.028Z,8.48
2023-01-13T04:08:26.275Z,8.56
2023-01-13T04:12:53.079Z,8.61
2023-01-13T04:16:56.525Z,8.55
2023-01-13T04:21:02.297Z,8.60
2023-01-13T04:25:05.779Z,8.63
2023-01-13T04:29:10.112Z,8.64
2023-01-13T04:33:13.974Z,8.77
2023-01-13T04:37:16.974Z,8.77
2023-01-13T04:41:19.944Z,8.46
2023-01-13T04:45:24.373Z,8.19
2023-01-13T04:49:29.827Z,8.11
2023-01-13T04:53:32.801Z,8.05
2023-01-13T04:57:37.687Z,8.11
2023-01-13T05:01:42.172Z,8.14
2023-01-13T05:05:45.817Z,8.23
2023-01-13T05:09:48.777Z,8.33
2023-01-13T05:14:09.158Z,8.32
2023-01-13T05:18:14.084Z,8.21
2023-01-13T05:22:35.098Z,8.31
2023-01-13T05:26:38.225Z,8.40
2023-01-13T05:30:43.945Z,8.49
2023-01-13T05:34:48.302Z,8.46
2023-01-13T05:38:52.621Z,8.43
2023-01-13T05:43:19.983Z,8.44
2023-01-13T05:47:22.960Z,8.48
2023-01-13T05:51:27.300Z,8.56
2023-01-13T05:55:30.283Z,8.59
2023-01-13T05:59:33.263Z,8.61
2023-01-13T06:03:36.994Z,8.59
2023-01-13T06:07:41.296Z,8.54
2023-01-13T06:11:44.235Z,8.55
2023-01-13T06:15:47.229Z,8.59
2023-01-13T06:19:51.050Z,8.58
2023-01-13T06:23:55.380Z,8.60
2023-01-13T06:28:00.701Z,8.56
2023-01-13T06:32:07.036Z,8.45
2023-01-13T06:36:17.585Z,8.57
2023-01-13T06:40:22.395Z,8.45
2023-01-13T06:44:25.786Z,8.39
2023-01-13T06:48:33.144Z,8.53
2023-01-13T06:52:36.146Z,8.45
2023-01-13T06:56:40.460Z,8.43
2023-01-13T07:00:43.945Z,8.41
2023-01-13T07:04:47.528Z,8.41
2023-01-13T07:08:50.616Z,8.25
2023-01-13T07:13:12.591Z,8.26
2023-01-13T07:17:15.608Z,8.19
2023-01-13T07:21:20.095Z,8.15
2023-01-13T07:25:23.780Z,8.13
2023-01-13T07:29:28.460Z,7.98
2023-01-13T07:33:33.161Z,8.04
2023-01-13T07:37:38.227Z,8.08
2023-01-13T07:41:58.703Z,8.11
2023-01-13T07:46:05.090Z,8.11
2023-01-13T07:50:09.936Z,8.05
2023-01-13T07:54:12.963Z,8.09
2023-01-13T07:58:15.951Z,8.09
2023-01-13T08:02:20.559Z,8.10
2023-01-13T08:06:23.730Z,8.19
2023-01-13T08:10:26.713Z,8.24
2023-01-13T08:14:29.694Z,8.20
2023-01-13T08:18:35.597Z,8.18
2023-01-13T08:22:38.608Z,8.13
2023-01-13T08:26:41.839Z,8.17
2023-01-13T08:30:45.032Z,8.16
2023-01-13T08:34:49.443Z,8.22
2023-01-13T08:38:52.461Z,8.22
2023-01-13T08:42:56.523Z,8.32
2023-01-13T08:47:00.371Z,8.57
2023-01-13T08:51:06.905Z,8.64
2023-01-13T08:55:10.516Z,8.65
2023-01-13T08:59:14.583Z,8.77
2023-01-13T09:03:17.821Z,8.92
2023-01-13T09:07:22.283Z,8.86
2023-01-13T09:11:48.198Z,9.06
2023-01-13T09:15:52.366Z,8.98
2023-01-13T09:19:55.458Z,8.96
2023-01-13T09:23:59.814Z,8.82
2023-01-13T09:28:04.926Z,8.85
2023-01-13T09:32:08.331Z,9.06
2023-01-13T09:36:11.616Z,9.41
2023-01-13T09:40:19.471Z,9.50
2023-01-13T09:44:27.063Z,9.26
2023-01-13T09:48:34.336Z,9.46
2023-01-13T09:52:38.344Z,9.77
2023-01-13T09:56:42.756Z,9.82
2023-01-13T10:00:53.890Z,9.51
2023-01-13T10:05:05.204Z,9.40
2023-01-13T10:09:15.978Z,9.37
2023-01-13T10:13:23.311Z,9.34
2023-01-13T10:17:31.732Z,9.43
2023-01-13T10:21:56.760Z,9.52
2023-01-13T10:26:05.883Z,9.43
2023-01-13T10:30:21.015Z,9.72
2023-01-13T10:34:25.205Z,9.72
2023-01-13T10:38:30.738Z,9.76
2023-01-13T10:42:33.817Z,10.11
2023-01-13T10:46:53.849Z,10.02
2023-01-13T10:50:57.199Z,9.84
2023-01-13T10:55:01.129Z,9.90
2023-01-13T10:59:15.669Z,9.79
2023-01-13T11:03:22.506Z,9.74
2023-01-13T11:07:39.620Z,9.80
2023-01-13T11:11:44.882Z,9.74
2023-01-13T11:15:56.298Z,9.67
2023-01-13T11:20:06.186Z,9.55
2023-01-13T11:24:18.881Z,9.46
2023-01-13T11:28:39.986Z,9.25
2023-01-13T11:32:59.315Z,9.58
2023-01-13T11:37:11.084Z,9.70
2023-01-13T11:41:24.397Z,9.71
2023-01-13T11:45:35.876Z,9.68
2023-01-13T11:49:39.583Z,9.76
2023-01-13T11:54:01.297Z,9.72
2023-01-13T11:58:21.440Z,9.41
2023-01-13T12:02:44.983Z,9.42
2023-01-13T12:06:53.603Z,9.36
2023-01-13T12:11:06.227Z,9.03
2023-01-13T12:15:29.236Z,8.72
2023-01-13T12:19:32.900Z,8.42
2023-01-13T12:23:40.116Z,7.93
2023-01-13T12:27:48.948Z,7.59
2023-01-13T12:31:53.265Z,7.59
2023-01-13T12:36:02.331Z,7.58
2023-01-13T12:40:22.739Z,7.60
2023-01-13T12:44:27.345Z,7.57
2023-01-13T12:48:49.124Z,7.55
2023-01-13T12:52:54.222Z,7.53
2023-01-13T12:56:58.090Z,7.61
2023-01-13T13:01:13.677Z,7.63
2023-01-13T13:05:51.596Z,7.82
2023-01-13T13:09:59.158Z,7.96
2023-01-13T13:14:04.279Z,8.00
2023-01-13T13:18:29.551Z,8.20
2023-01-13T13:22:45.040Z,8.28
2023-01-13T13:26:48.241Z,8.48
2023-01-13T13:31:07.092Z,8.49
2023-01-13T13:35:29.140Z,8.57
2023-01-13T13:39:52.114Z,8.60
2023-01-13T13:44:13.071Z,8.56
2023-01-13T13:48:24.758Z,8.51
2023-01-13T13:52:37.539Z,8.40
2023-01-13T13:56:44.535Z,8.32
2023-01-13T14:00:49.325Z,8.32
2023-01-13T14:04:52.850Z,8.30
2023-01-13T14:08:57.382Z,8.28
2023-01-13T14:13:02.918Z,8.49
2023-01-13T14:17:06.133Z,8.71
2023-01-13T14:21:20.929Z,8.69
2023-01-13T14:25:39.492Z,8.48
2023-01-13T14:29:42.822Z,8.24
2023-01-13T14:33:47.571Z,8.14
2023-01-13T14:37:54.361Z,8.03
2023-01-13T14:41:58.847Z,7.97
2023-01-13T14:46:03.576Z,7.93
2023-01-13T14:50:18.694Z,7.91
2023-01-13T14:54:45.090Z,7.88
2023-01-13T14:58:50.012Z,7.85
2023-01-13T15:03:08.061Z,7.92
2023-01-13T15:07:22.508Z,7.94
2023-01-13T15:11:29.902Z,7.91
2023-01-13T15:15:36.774Z,7.91
2023-01-13T15:19:41.303Z,8.03
2023-01-13T15:23:47.246Z,8.11
2023-01-13T15:27:53.676Z,8.17
2023-01-13T15:31:58.097Z,8.20
2023-01-13T15:36:02.032Z,8.14
2023-01-13T15:40:06.178Z,8.16
2023-01-13T15:44:29.757Z,8.21
2023-01-13T15:48:35.648Z,8.18
2023-01-13T15:52:39.157Z,8.22
2023-01-13T15:56:43.099Z,8.21
2023-01-13T16:00:46.234Z,8.11
2023-01-13T16:04:53.966Z,8.01
2023-01-13T16:08:57.111Z,8.02
2023-01-13T16:13:00.523Z,7.89
2023-01-13T16:17:03.825Z,7.77
2023-01-13T16:21:10.352Z,7.68
2023-01-13T16:25:17.598Z,7.61
2023-01-13T16:29:20.642Z,7.58
2023-01-13T16:33:23.995Z,7.63
2023-01-13T16:37:29.763Z,7.65
2023-01-13T16:41:34.505Z,7.75
2023-01-13T16:45:37.608Z,7.80
2023-01-13T16:49:41.054Z,7.92
2023-01-13T16:53:45.994Z,7.97
2023-01-13T16:57:49.189Z,8.06
2023-01-13T17:01:53.529Z,8.20
2023-01-13T17:05:56.654Z,8.34
2023-01-13T17:10:01.092Z,8.42
2023-01-13T17:14:18.300Z,8.52
2023-01-13T17:18:22.102Z,8.60
2023-01-13T17:22:25.229Z,8.66
2023-01-13T17:26:33.345Z,8.67
2023-01-13T17:30:36.478Z,8.75
2023-01-13T17:34:40.216Z,8.77
2023-01-13T17:38:43.262Z,8.76
2023-01-13T17:42:48.352Z,8.89
2023-01-13T17:46:52.289Z,8.95
2023-01-13T17:50:55.432Z,8.94
2023-01-13T17:54:58.617Z,9.00
2023-01-13T17:59:03.138Z,8.96
2023-01-13T18:03:06.546Z,8.92
2023-01-13T18:07:09.673Z,9.00
2023-01-13T18:11:12.923Z,9.02
2023-01-13T18:15:17.954Z,8.97
2023-01-13T18:19:38.445Z,9.02
2023-01-13T18:23:59.280Z,9.06
2023-01-13T18:28:02.999Z,9.03
2023-01-13T18:32:09.021Z,9.03
2023-01-13T18:36:12.675Z,9.07
2023-01-13T18:40:15.839Z,9.09
2023-01-13T18:44:19.315Z,9.08
2023-01-13T18:48:23.793Z,9.05
2023-01-13T18:52:27.495Z,9.01
2023-01-13T18:56:31.198Z,8.99
2023-01-13T19:00:37.659Z,8.93
2023-01-13T19:04:42.505Z,9.01
2023-01-13T19:08:45.818Z,8.97
2023-01-13T19:12:48.957Z,8.91
2023-01-13T19:16:52.218Z,8.82
2023-01-13T19:20:56.794Z,8.75
2023-01-13T19:25:00.947Z,8.71
2023-01-13T19:29:04.212Z,8.61
2023-01-13T19:33:07.407Z,8.51
2023-01-13T19:37:12.237Z,8.39
2023-01-13T19:41:29.293Z,8.40
2023-01-13T19:45:35.410Z,8.42
2023-01-13T19:49:38.963Z,8.32
2023-01-13T19:53:43.365Z,8.23
2023-01-13T19:57:48.971Z,8.20
2023-01-13T20:01:52.400Z,8.21
2023-01-13T20:05:56.140Z,8.15
2023-01-13T20:10:01.666Z,8.13
2023-01-13T20:14:05.211Z,8.11
2023-01-13T20:18:08.796Z,8.12
2023-01-13T20:22:12.651Z,8.13
2023-01-13T20:26:17.067Z,8.22
2023-01-13T20:30:20.787Z,8.23
2023-01-13T20:34:24.512Z,8.30
2023-01-13T20:38:27.566Z,8.31
2023-01-13T20:42:32.307Z,8.29
2023-01-13T20:46:35.855Z,8.29
2023-01-13T20:50:38.984Z,8.15
2023-01-13T20:54:42.645Z,8.17
2023-01-13T20:58:47.265Z,8.26
2023-01-13T21:02:50.315Z,8.18
2023-01-13T21:06:53.651Z,8.11
2023-01-13T21:11:02.694Z,7.98
2023-01-13T21:15:22.303Z,7.95
2023-01-13T21:19:25.706Z,7.91
2023-01-13T21:23:28.799Z,7.86
2023-01-13T21:27:32.399Z,7.87
2023-01-13T21:31:36.887Z,7.78
2023-01-13T21:35:40.222Z,7.80
2023-01-13T21:39:43.515Z,7.76
2023-01-13T21:44:03.890Z,7.64
2023-01-13T21:48:08.590Z,7.65
2023-01-13T21:52:12.297Z,7.68
2023-01-13T21:56:15.353Z,7.78
2023-01-13T22:00:20.323Z,7.71
2023-01-13T22:04:24.749Z,7.82
2023-01-13T22:08:28.123Z,7.80
2023-01-13T22:12:31.216Z,7.91
2023-01-13T22:16:37.635Z,7.86
2023-01-13T22:20:42.370Z,7.86
2023-01-13T22:24:47.342Z,7.78
2023-01-13T22:28:50.385Z,7.76
2023-01-13T22:32:53.534Z,7.73
2023-01-13T22:36:57.989Z,7.65
2023-01-13T22:41:03.047Z,7.71
2023-01-13T22:45:08.126Z,7.57
2023-01-13T22:49:15.615Z,7.67
2023-01-13T22:53:20.550Z,7.59
2023-01-13T22:57:24.027Z,7.60
2023-01-13T23:01:28.943Z,7.46
2023-01-13T23:05:32.078Z,7.47
2023-01-13T23:09:36.457Z,7.47
2023-01-13T23:13:43.459Z,7.48
2023-01-13T23:17:50.018Z,7.54
2023-01-13T23:21:53.108Z,7.47
2023-01-13T23:25:57.660Z,7.45
2023-01-13T23:30:00.723Z,7.50
2023-01-13T23:34:03.868Z,7.39
2023-01-13T23:38:06.988Z,7.46
2023-01-13T23:42:11.326Z,7.46
2023-01-13T23:46:16.810Z,7.44
2023-01-13T23:50:19.873Z,7.40
2023-01-13T23:54:22.948Z,7.50
2023-01-13T23:58:27.959Z,7.50
